Terminal Aerodrome Forecast
Issued by NWS Lake Charles, LA

Home | Current Version | Previous Version | Text Only | Print | Product List | Glossary On
Versions: 1 2 3 4 5 6 7 8 9 10 11 12 13 14 15 16 17 18 19 20 21 22 23 24
000
FTUS44 KLCH 211100
TAFARA
TAF
KARA 211137Z 2112/2212 03004KT 4SM BR OVC003
      TEMPO 2112/2114 1SM BR VV001
     FM211500 05004KT P6SM BKN015
     FM211800 04003KT P6SM SCT025 BKN080
     FM220600 16003KT 5SM BR BKN015
     FM220900 18003KT 2SM BR OVC007=

USA.gov is the U.S. government's official web portal to all federal, state and local government web resources and services.